createdAt,value
2023-04-23T00:02:23.031Z,98956.28
2023-04-23T00:07:24.927Z,98955.81
2023-04-23T00:12:27.584Z,98942.31
2023-04-23T00:17:30.001Z,98936.75
2023-04-23T00:22:31.634Z,98932.78
2023-04-23T00:27:33.270Z,98927.09
2023-04-23T00:32:34.978Z,98920.31
2023-04-23T00:37:36.783Z,98925.88
2023-04-23T00:42:39.783Z,98927.03
2023-04-23T00:47:41.624Z,98921.50
2023-04-23T00:52:43.285Z,98926.88
2023-04-23T00:57:44.921Z,98926.41
2023-04-23T01:02:49.666Z,98917.78
2023-04-23T01:07:51.632Z,98921.63
2023-04-23T01:12:53.634Z,98921.56
2023-04-23T01:17:58.550Z,98922.66
2023-04-23T01:23:00.323Z,98923.53
2023-04-23T01:28:02.789Z,98920.88
2023-04-23T01:33:05.445Z,98911.94
2023-04-23T01:38:10.429Z,98914.09
2023-04-23T01:43:12.130Z,98921.09
2023-04-23T01:48:14.683Z,98923.22
2023-04-23T01:53:16.424Z,98915.75
2023-04-23T01:58:19.374Z,98923.44
2023-04-23T02:03:21.091Z,98922.13
2023-04-23T02:08:23.046Z,98913.50
2023-04-23T02:13:24.701Z,98916.78
2023-04-23T02:18:26.614Z,98911.06
2023-04-23T02:23:28.298Z,98908.75
2023-04-23T02:28:30.033Z,98908.28
2023-04-23T02:33:31.700Z,98914.69
2023-04-23T02:38:33.466Z,98915.47
2023-04-23T02:43:35.277Z,98924.94
2023-04-23T02:48:41.530Z,98921.25
2023-04-23T02:53:43.199Z,98916.09
2023-04-23T02:58:45.208Z,98908.94
2023-04-23T03:03:47.081Z,98906.09
2023-04-23T03:08:48.941Z,98902.84
2023-04-23T03:13:50.696Z,98896.16
2023-04-23T03:18:53.420Z,98885.19
2023-04-23T03:23:55.602Z,98883.16
2023-04-23T03:28:57.796Z,98867.63
2023-04-23T03:33:59.792Z,98858.03
2023-04-23T03:39:07.907Z,98842.31
2023-04-23T03:44:21.909Z,98853.16
2023-04-23T03:49:26.849Z,98849.75
2023-04-23T03:54:30.476Z,98854.09
2023-04-23T03:59:47.913Z,98849.22
2023-04-23T04:04:51.839Z,98852.72
2023-04-23T04:09:53.614Z,98855.16
2023-04-23T04:15:00.098Z,98863.63
2023-04-23T04:20:01.798Z,98869.50
2023-04-23T04:25:05.253Z,98882.31
2023-04-23T04:30:08.011Z,98886.13
2023-04-23T04:35:09.661Z,98888.38
2023-04-23T04:40:11.912Z,98898.56
2023-04-23T04:45:13.612Z,98894.69
2023-04-23T04:50:15.257Z,98889.09
2023-04-23T04:55:16.909Z,98889.03
2023-04-23T05:00:29.588Z,98905.25
2023-04-23T05:05:32.825Z,98898.81
2023-04-23T05:10:34.524Z,98892.72
2023-04-23T05:15:36.190Z,98892.25
2023-04-23T05:20:38.327Z,98903.84
2023-04-23T05:25:39.958Z,98910.56
2023-04-23T05:30:41.628Z,98919.66
2023-04-23T05:35:43.322Z,98907.00
2023-04-23T05:40:45.009Z,98908.13
2023-04-23T05:45:46.726Z,98909.88
2023-04-23T05:50:49.645Z,98908.94
2023-04-23T05:55:51.405Z,98910.19
2023-04-23T06:00:53.805Z,98909.94
2023-04-23T06:05:55.493Z,98912.16
2023-04-23T06:10:57.321Z,98914.56
2023-04-23T06:15:59.049Z,98911.59
2023-04-23T06:21:04.334Z,98905.19
2023-04-23T06:26:06.190Z,98916.28
2023-04-23T06:31:08.892Z,98913.03
2023-04-23T06:36:11.132Z,98929.59
2023-04-23T06:41:15.510Z,98926.50
2023-04-23T06:46:17.131Z,98936.41
2023-04-23T06:51:19.135Z,98933.72
2023-04-23T06:56:21.836Z,98934.78
2023-04-23T07:01:23.598Z,98931.09
2023-04-23T07:06:25.651Z,98939.28
2023-04-23T07:11:27.326Z,98937.38
2023-04-23T07:16:33.457Z,98933.59
2023-04-23T07:21:35.960Z,98944.81
2023-04-23T07:26:37.622Z,98940.88
2023-04-23T07:31:41.659Z,98943.47
2023-04-23T07:36:43.339Z,98941.72
2023-04-23T07:41:45.201Z,98953.28
2023-04-23T07:46:46.845Z,98959.22
2023-04-23T07:51:49.154Z,98954.50
2023-04-23T07:56:50.877Z,98955.09
2023-04-23T08:01:52.834Z,98963.56
2023-04-23T08:06:54.464Z,98956.28
2023-04-23T08:11:57.645Z,98946.28
2023-04-23T08:16:59.396Z,98946.09
2023-04-23T08:22:01.029Z,98940.88
2023-04-23T08:27:03.021Z,98949.09
2023-04-23T08:32:04.816Z,98954.03
2023-04-23T08:37:08.550Z,98953.19
2023-04-23T08:42:27.025Z,98959.75
2023-04-23T08:47:30.126Z,98970.13
2023-04-23T08:52:34.776Z,98970.59
2023-04-23T08:57:41.258Z,98977.09
2023-04-23T09:02:45.549Z,98978.34
2023-04-23T09:07:47.312Z,98986.13
2023-04-23T09:12:48.973Z,98995.97
2023-04-23T09:17:51.012Z,98983.41
2023-04-23T09:22:52.774Z,98988.56
2023-04-23T09:27:54.609Z,98989.72
2023-04-23T09:32:56.272Z,99001.06
2023-04-23T09:37:57.945Z,98989.84
2023-04-23T09:42:59.834Z,98996.34
2023-04-23T09:48:02.005Z,98992.06
2023-04-23T09:53:04.559Z,98990.75
2023-04-23T09:58:15.145Z,98986.00
2023-04-23T10:03:27.670Z,99000.41
2023-04-23T10:08:31.900Z,98987.59
2023-04-23T10:13:36.622Z,98985.88
2023-04-23T10:18:39.606Z,98980.06
2023-04-23T10:23:44.339Z,98988.56
2023-04-23T10:28:48.698Z,98985.47
2023-04-23T10:33:58.835Z,98979.38
2023-04-23T10:39:04.321Z,98978.53
2023-04-23T10:44:07.309Z,98972.63
2023-04-23T10:49:16.737Z,98977.19
2023-04-23T10:54:20.040Z,98977.78
2023-04-23T10:59:22.853Z,98989.38
2023-04-23T11:04:26.581Z,98988.00
2023-04-23T11:09:32.566Z,98987.50
2023-04-23T11:14:47.795Z,98985.44
2023-04-23T11:20:07.115Z,98977.25
2023-04-23T11:25:13.222Z,98982.59
2023-04-23T11:30:16.940Z,98990.41
2023-04-23T11:35:21.041Z,98987.78
2023-04-23T11:40:24.375Z,98988.69
2023-04-23T11:45:28.547Z,98979.19
2023-04-23T11:50:33.584Z,98979.78
2023-04-23T11:55:35.467Z,98978.47
2023-04-23T12:00:37.073Z,98975.97
2023-04-23T12:05:44.189Z,98967.06
2023-04-23T12:10:55.650Z,98977.22
2023-04-23T12:15:59.666Z,98974.88
2023-04-23T12:21:09.423Z,98983.59
2023-04-23T12:26:12.591Z,98984.97
2023-04-23T12:31:20.708Z,98971.00
2023-04-23T12:36:28.385Z,98974.66
2023-04-23T12:41:32.227Z,98972.53
2023-04-23T12:46:35.033Z,98961.00
2023-04-23T12:51:36.750Z,98950.97
2023-04-23T12:56:38.379Z,98958.00
2023-04-23T13:01:40.093Z,98951.84
2023-04-23T13:06:42.328Z,98939.56
2023-04-23T13:11:44.136Z,98939.00
2023-04-23T13:16:45.851Z,98930.94
2023-04-23T13:21:47.571Z,98931.94
2023-04-23T13:26:49.221Z,98912.88
2023-04-23T13:31:51.354Z,98902.22
2023-04-23T13:36:53.027Z,98894.38
2023-04-23T13:42:08.916Z,98886.47
2023-04-23T13:47:11.426Z,98892.97
2023-04-23T13:52:13.044Z,98882.09
2023-04-23T13:57:15.232Z,98880.63
2023-04-23T14:02:16.977Z,98874.50
2023-04-23T14:07:18.678Z,98864.00
2023-04-23T14:12:20.813Z,98860.63
2023-04-23T14:17:22.472Z,98856.66
2023-04-23T14:22:24.207Z,98849.25
2023-04-23T14:27:26.057Z,98846.41
2023-04-23T14:32:27.750Z,98839.16
2023-04-23T14:37:29.394Z,98843.41
2023-04-23T14:42:31.026Z,98843.63
2023-04-23T14:47:32.677Z,98838.47
2023-04-23T14:52:34.386Z,98837.75
2023-04-23T14:57:35.989Z,98826.75
2023-04-23T15:02:38.252Z,98829.22
2023-04-23T15:07:40.098Z,98816.06
2023-04-23T15:12:41.681Z,98813.75
2023-04-23T15:17:43.452Z,98804.28
2023-04-23T15:22:47.934Z,98801.28
2023-04-23T15:27:56.854Z,98810.97
2023-04-23T15:32:58.756Z,98801.78
2023-04-23T15:38:01.106Z,98812.78
2023-04-23T15:43:03.139Z,98803.09
2023-04-23T15:48:05.108Z,98780.41
2023-04-23T15:53:06.993Z,98780.13
2023-04-23T15:58:08.711Z,98792.97
2023-04-23T16:03:10.772Z,98781.06
2023-04-23T16:08:12.545Z,98763.66
2023-04-23T16:13:14.234Z,98763.84
2023-04-23T16:18:16.124Z,98751.28
2023-04-23T16:23:18.043Z,98748.81
2023-04-23T16:28:19.724Z,98745.41
2023-04-23T16:33:23.915Z,98728.91
2023-04-23T16:38:26.026Z,98734.53
2023-04-23T16:43:27.679Z,98719.53
2023-04-23T16:48:29.335Z,98718.22
2023-04-23T16:53:30.962Z,98727.66
2023-04-23T16:58:33.140Z,98713.19
2023-04-23T17:03:36.550Z,98708.72
2023-04-23T17:08:38.977Z,98710.91
2023-04-23T17:13:43.578Z,98710.31
2023-04-23T17:18:46.080Z,98707.84
2023-04-23T17:23:47.979Z,98697.78
2023-04-23T17:28:49.785Z,98684.66
2023-04-23T17:33:53.627Z,98677.84
2023-04-23T17:38:55.342Z,98683.91
2023-04-23T17:43:57.085Z,98685.34
2023-04-23T17:48:58.704Z,98674.69
2023-04-23T17:54:02.090Z,98680.59
2023-04-23T17:59:04.118Z,98682.00
2023-04-23T18:04:05.952Z,98687.66
2023-04-23T18:09:08.954Z,98688.19
2023-04-23T18:14:10.938Z,98690.69
2023-04-23T18:19:12.569Z,98709.38
2023-04-23T18:24:14.247Z,98712.09
2023-04-23T18:29:15.868Z,98712.16
2023-04-23T18:34:19.124Z,98711.53
2023-04-23T18:39:20.979Z,98714.03
2023-04-23T18:44:22.749Z,98723.94
2023-04-23T18:49:31.237Z,98733.03
2023-04-23T18:54:32.873Z,98739.63
2023-04-23T18:59:37.215Z,98750.53
2023-04-23T19:04:39.107Z,98741.53
2023-04-23T19:09:41.161Z,98735.16
2023-04-23T19:14:42.882Z,98736.44
2023-04-23T19:19:44.560Z,98727.47
2023-04-23T19:24:46.213Z,98728.31
2023-04-23T19:29:49.333Z,98716.09
2023-04-23T19:34:51.459Z,98720.03
2023-04-23T19:39:53.110Z,98706.31
2023-04-23T19:44:54.703Z,98697.06
2023-04-23T19:49:56.665Z,98685.91
2023-04-23T19:54:59.202Z,98698.19
2023-04-23T20:00:00.805Z,98683.28
2023-04-23T20:05:03.285Z,98683.38
2023-04-23T20:10:05.821Z,98672.59
2023-04-23T20:15:11.102Z,98679.06
2023-04-23T20:20:13.169Z,98670.97
2023-04-23T20:25:14.799Z,98659.78
2023-04-23T20:30:16.994Z,98659.19
2023-04-23T20:35:18.694Z,98656.88
2023-04-23T20:40:20.390Z,98659.31
2023-04-23T20:45:22.438Z,98649.56
2023-04-23T20:50:24.157Z,98643.56
2023-04-23T20:55:26.026Z,98635.28
2023-04-23T21:00:27.923Z,98638.22
2023-04-23T21:05:29.555Z,98634.38
2023-04-23T21:10:31.290Z,98633.94
2023-04-23T21:15:35.214Z,98638.09
2023-04-23T21:20:37.190Z,98638.25
2023-04-23T21:25:39.483Z,98644.69
2023-04-23T21:30:51.389Z,98639.25
2023-04-23T21:35:53.789Z,98644.38
2023-04-23T21:40:55.517Z,98646.44
2023-04-23T21:45:57.197Z,98637.72
2023-04-23T21:50:58.924Z,98620.84
2023-04-23T21:56:00.549Z,98627.56
2023-04-23T22:01:02.232Z,98622.63
2023-04-23T22:06:04.514Z,98615.03
2023-04-23T22:11:07.371Z,98614.84
2023-04-23T22:16:24.494Z,98607.09
2023-04-23T22:21:26.473Z,98611.56
2023-04-23T22:26:28.157Z,98596.38
2023-04-23T22:31:29.828Z,98593.50
2023-04-23T22:36:31.998Z,98580.38
2023-04-23T22:41:33.983Z,98571.75
2023-04-23T22:46:35.863Z,98566.78
2023-04-23T22:51:39.166Z,98555.16
2023-04-23T22:56:40.916Z,98549.34
2023-04-23T23:01:42.554Z,98549.22
2023-04-23T23:06:44.367Z,98535.13
2023-04-23T23:11:46.250Z,98536.63
2023-04-23T23:16:48.049Z,98528.81
2023-04-23T23:21:49.754Z,98529.69
2023-04-23T23:26:51.409Z,98518.19
2023-04-23T23:31:53.071Z,98512.00
2023-04-23T23:36:54.714Z,98509.44
2023-04-23T23:41:58.384Z,98509.06
2023-04-23T23:47:01.514Z,98505.88
2023-04-23T23:52:03.927Z,98495.28
2023-04-23T23:57:05.653Z,98481.25
